sensor_id;sensor_type;location;lat;lon;timestamp;temperature;humidity
44435;DHT22;30138;20.964;105.830;2024-02-23T00:00:41;25.50;99.90
44435;DHT22;30138;20.964;105.830;2024-02-23T00:05:47;25.50;99.90
44435;DHT22;30138;20.964;105.830;2024-02-23T00:10:54;25.50;99.90
44435;DHT22;30138;20.964;105.830;2024-02-23T00:16:02;25.50;99.90
44435;DHT22;30138;20.964;105.830;2024-02-23T00:21:09;25.50;99.90
44435;DHT22;30138;20.964;105.830;2024-02-23T00:26:16;25.50;99.90
44435;DHT22;30138;20.964;105.830;2024-02-23T00:31:24;25.40;99.90
44435;DHT22;30138;20.964;105.830;2024-02-23T00:36:31;25.40;99.90
44435;DHT22;30138;20.964;105.830;2024-02-23T00:41:37;25.40;99.90
44435;DHT22;30138;20.964;105.830;2024-02-23T00:46:46;25.50;99.90
44435;DHT22;30138;20.964;105.830;2024-02-23T00:51:53;25.40;99.90
44435;DHT22;30138;20.964;105.830;2024-02-23T00:57:00;25.40;99.90
44435;DHT22;30138;20.964;105.830;2024-02-23T01:02:08;25.40;99.90
44435;DHT22;30138;20.964;105.830;2024-02-23T01:07:15;25.40;99.90
44435;DHT22;30138;20.964;105.830;2024-02-23T01:12:21;25.40;99.90
44435;DHT22;30138;20.964;105.830;2024-02-23T01:17:31;25.40;99.90
44435;DHT22;30138;20.964;105.830;2024-02-23T01:22:38;25.40;99.90
44435;DHT22;30138;20.964;105.830;2024-02-23T01:27:45;25.40;99.90
44435;DHT22;30138;20.964;105.830;2024-02-23T01:32:55;25.40;99.90
44435;DHT22;30138;20.964;105.830;2024-02-23T01:38:02;25.40;99.90
44435;DHT22;30138;20.964;105.830;2024-02-23T01:43:08;25.40;99.90
44435;DHT22;30138;20.964;105.830;2024-02-23T01:48:17;25.40;99.90
44435;DHT22;30138;20.964;105.830;2024-02-23T01:53:25;25.40;99.90
44435;DHT22;30138;20.964;105.830;2024-02-23T01:58:34;25.40;99.90
44435;DHT22;30138;20.964;105.830;2024-02-23T02:03:44;25.40;99.90
44435;DHT22;30138;20.964;105.830;2024-02-23T02:08:51;25.40;99.90
44435;DHT22;30138;20.964;105.830;2024-02-23T02:13:57;25.40;99.90
44435;DHT22;30138;20.964;105.830;2024-02-23T02:19:07;25.40;99.90
44435;DHT22;30138;20.964;105.830;2024-02-23T02:24:13;25.40;99.90
44435;DHT22;30138;20.964;105.830;2024-02-23T02:29:19;25.40;99.90
44435;DHT22;30138;20.964;105.830;2024-02-23T02:34:29;25.40;99.90
44435;DHT22;30138;20.964;105.830;2024-02-23T02:39:36;25.40;99.90
44435;DHT22;30138;20.964;105.830;2024-02-23T02:44:44;25.40;99.90
44435;DHT22;30138;20.964;105.830;2024-02-23T02:49:53;25.40;99.90
44435;DHT22;30138;20.964;105.830;2024-02-23T02:54:59;25.40;99.90
44435;DHT22;30138;20.964;105.830;2024-02-23T03:00:11;25.40;99.90
44435;DHT22;30138;20.964;105.830;2024-02-23T03:05:21;25.40;99.90
44435;DHT22;30138;20.964;105.830;2024-02-23T03:10:27;25.40;99.90
44435;DHT22;30138;20.964;105.830;2024-02-23T03:15:34;25.40;99.90
44435;DHT22;30138;20.964;105.830;2024-02-23T03:20:43;25.40;99.90
44435;DHT22;30138;20.964;105.830;2024-02-23T03:25:49;25.40;99.90
44435;DHT22;30138;20.964;105.830;2024-02-23T03:30:56;25.40;99.90
44435;DHT22;30138;20.964;105.830;2024-02-23T03:36:05;25.30;99.90
44435;DHT22;30138;20.964;105.830;2024-02-23T03:41:12;25.40;99.90
44435;DHT22;30138;20.964;105.830;2024-02-23T03:46:20;25.40;99.90
44435;DHT22;30138;20.964;105.830;2024-02-23T03:51:28;25.40;99.90
44435;DHT22;30138;20.964;105.830;2024-02-23T03:56:39;25.30;99.90
44435;DHT22;30138;20.964;105.830;2024-02-23T04:01:45;25.30;99.90
44435;DHT22;30138;20.964;105.830;2024-02-23T04:06:54;25.30;99.90
44435;DHT22;30138;20.964;105.830;2024-02-23T04:12:01;25.30;99.90
44435;DHT22;30138;20.964;105.830;2024-02-23T04:17:08;25.30;99.90
44435;DHT22;30138;20.964;105.830;2024-02-23T04:22:18;25.30;99.90
44435;DHT22;30138;20.964;105.830;2024-02-23T04:27:24;25.20;99.90
44435;DHT22;30138;20.964;105.830;2024-02-23T04:32:31;25.20;99.90
44435;DHT22;30138;20.964;105.830;2024-02-23T04:37:40;25.20;99.90
44435;DHT22;30138;20.964;105.830;2024-02-23T04:42:50;25.20;99.90
44435;DHT22;30138;20.964;105.830;2024-02-23T04:47:57;25.20;99.90
44435;DHT22;30138;20.964;105.830;2024-02-23T04:53:06;25.20;99.90
44435;DHT22;30138;20.964;105.830;2024-02-23T04:58:13;25.20;99.90
44435;DHT22;30138;20.964;105.830;2024-02-23T05:03:20;25.10;99.90
44435;DHT22;30138;20.964;105.830;2024-02-23T05:08:28;25.10;99.90
44435;DHT22;30138;20.964;105.830;2024-02-23T05:13:35;25.10;99.90
44435;DHT22;30138;20.964;105.830;2024-02-23T05:18:44;25.10;99.90
44435;DHT22;30138;20.964;105.830;2024-02-23T05:23:52;25.10;99.90
44435;DHT22;30138;20.964;105.830;2024-02-23T05:28:59;25.10;99.90
44435;DHT22;30138;20.964;105.830;2024-02-23T05:34:06;25.10;99.90
44435;DHT22;30138;20.964;105.830;2024-02-23T05:39:15;25.10;99.90
44435;DHT22;30138;20.964;105.830;2024-02-23T05:44:22;25.10;99.90
44435;DHT22;30138;20.964;105.830;2024-02-23T05:49:29;25.10;99.90
44435;DHT22;30138;20.964;105.830;2024-02-23T05:54:39;25.10;99.90
44435;DHT22;30138;20.964;105.830;2024-02-23T05:59:46;25.00;99.90
44435;DHT22;30138;20.964;105.830;2024-02-23T06:04:54;25.00;99.90
44435;DHT22;30138;20.964;105.830;2024-02-23T06:10:03;25.00;99.90
44435;DHT22;30138;20.964;105.830;2024-02-23T06:15:10;25.00;99.90
44435;DHT22;30138;20.964;105.830;2024-02-23T06:20:17;25.00;99.90
44435;DHT22;30138;20.964;105.830;2024-02-23T06:25:27;25.00;99.90
44435;DHT22;30138;20.964;105.830;2024-02-23T06:30:34;25.00;99.90
44435;DHT22;30138;20.964;105.830;2024-02-23T06:35:40;24.90;99.90
44435;DHT22;30138;20.964;105.830;2024-02-23T06:40:49;24.90;99.90
44435;DHT22;30138;20.964;105.830;2024-02-23T06:45:58;24.90;99.90
44435;DHT22;30138;20.964;105.830;2024-02-23T06:51:04;24.90;99.90
44435;DHT22;30138;20.964;105.830;2024-02-23T06:56:14;24.90;99.90
44435;DHT22;30138;20.964;105.830;2024-02-23T07:01:21;24.90;99.90
44435;DHT22;30138;20.964;105.830;2024-02-23T07:06:28;24.80;99.90
44435;DHT22;30138;20.964;105.830;2024-02-23T07:11:36;24.80;99.90
44435;DHT22;30138;20.964;105.830;2024-02-23T07:16:44;24.80;99.90
44435;DHT22;30138;20.964;105.830;2024-02-23T07:21:51;24.80;99.90
44435;DHT22;30138;20.964;105.830;2024-02-23T07:27:01;24.80;99.90
44435;DHT22;30138;20.964;105.830;2024-02-23T07:32:08;24.80;99.90
44435;DHT22;30138;20.964;105.830;2024-02-23T07:37:15;24.70;99.90
44435;DHT22;30138;20.964;105.830;2024-02-23T07:42:25;24.70;99.90
44435;DHT22;30138;20.964;105.830;2024-02-23T07:47:31;24.70;99.90
44435;DHT22;30138;20.964;105.830;2024-02-23T07:52:39;24.70;99.90
44435;DHT22;30138;20.964;105.830;2024-02-23T07:57:47;24.60;99.90
44435;DHT22;30138;20.964;105.830;2024-02-23T08:02:54;24.60;99.90
44435;DHT22;30138;20.964;105.830;2024-02-23T08:08:02;24.60;99.90
44435;DHT22;30138;20.964;105.830;2024-02-23T08:13:11;24.60;99.90
44435;DHT22;30138;20.964;105.830;2024-02-23T08:18:18;24.60;99.90
44435;DHT22;30138;20.964;105.830;2024-02-23T08:23:25;24.60;99.90
44435;DHT22;30138;20.964;105.830;2024-02-23T08:28:34;24.50;99.90
44435;DHT22;30138;20.964;105.830;2024-02-23T08:33:41;24.50;99.90
44435;DHT22;30138;20.964;105.830;2024-02-23T08:38:47;24.50;99.90
44435;DHT22;30138;20.964;105.830;2024-02-23T08:43:55;24.50;99.90
44435;DHT22;30138;20.964;105.830;2024-02-23T08:49:02;24.40;99.90
44435;DHT22;30138;20.964;105.830;2024-02-23T08:54:08;24.40;99.90
44435;DHT22;30138;20.964;105.830;2024-02-23T08:59:17;24.40;99.90
44435;DHT22;30138;20.964;105.830;2024-02-23T09:04:24;24.40;99.90
44435;DHT22;30138;20.964;105.830;2024-02-23T09:09:31;24.30;99.90
44435;DHT22;30138;20.964;105.830;2024-02-23T09:14:39;24.30;99.90
44435;DHT22;30138;20.964;105.830;2024-02-23T09:19:46;24.30;99.90
44435;DHT22;30138;20.964;105.830;2024-02-23T09:24:53;24.30;99.90
44435;DHT22;30138;20.964;105.830;2024-02-23T09:30:02;24.30;99.90
44435;DHT22;30138;20.964;105.830;2024-02-23T09:35:10;24.30;99.90
44435;DHT22;30138;20.964;105.830;2024-02-23T09:40:19;24.30;99.90
44435;DHT22;30138;20.964;105.830;2024-02-23T09:45:28;24.20;99.90
44435;DHT22;30138;20.964;105.830;2024-02-23T09:50:35;24.20;99.90
44435;DHT22;30138;20.964;105.830;2024-02-23T09:55:44;24.20;99.90
44435;DHT22;30138;20.964;105.830;2024-02-23T10:00:53;24.20;99.90
44435;DHT22;30138;20.964;105.830;2024-02-23T10:06:00;24.10;99.90
44435;DHT22;30138;20.964;105.830;2024-02-23T10:11:07;24.10;99.90
44435;DHT22;30138;20.964;105.830;2024-02-23T10:16:17;24.10;99.90
44435;DHT22;30138;20.964;105.830;2024-02-23T10:21:25;24.00;99.90
44435;DHT22;30138;20.964;105.830;2024-02-23T10:26:32;24.00;99.90
44435;DHT22;30138;20.964;105.830;2024-02-23T10:31:40;24.00;99.90
44435;DHT22;30138;20.964;105.830;2024-02-23T10:36:48;24.00;99.90
44435;DHT22;30138;20.964;105.830;2024-02-23T10:41:57;24.00;99.90
44435;DHT22;30138;20.964;105.830;2024-02-23T10:47:10;24.00;99.90
44435;DHT22;30138;20.964;105.830;2024-02-23T10:52:18;24.00;99.90
44435;DHT22;30138;20.964;105.830;2024-02-23T10:57:25;24.00;99.90
44435;DHT22;30138;20.964;105.830;2024-02-23T11:02:36;23.90;99.90
44435;DHT22;30138;20.964;105.830;2024-02-23T11:07:47;23.90;99.90
44435;DHT22;30138;20.964;105.830;2024-02-23T11:12:58;23.90;99.90
44435;DHT22;30138;20.964;105.830;2024-02-23T11:18:22;23.90;99.90
44435;DHT22;30138;20.964;105.830;2024-02-23T11:23:38;23.90;99.90
44435;DHT22;30138;20.964;105.830;2024-02-23T11:28:49;23.90;99.90
44435;DHT22;30138;20.964;105.830;2024-02-23T11:33:58;23.80;99.90
44435;DHT22;30138;20.964;105.830;2024-02-23T11:39:05;23.80;99.90
44435;DHT22;30138;20.964;105.830;2024-02-23T11:44:15;23.80;99.90
44435;DHT22;30138;20.964;105.830;2024-02-23T11:49:28;23.80;99.90
44435;DHT22;30138;20.964;105.830;2024-02-23T11:54:35;23.70;99.90
44435;DHT22;30138;20.964;105.830;2024-02-23T11:59:42;23.70;99.90
44435;DHT22;30138;20.964;105.830;2024-02-23T12:04:52;23.70;99.90
44435;DHT22;30138;20.964;105.830;2024-02-23T12:09:58;23.70;99.90
44435;DHT22;30138;20.964;105.830;2024-02-23T12:15:07;23.70;99.90
44435;DHT22;30138;20.964;105.830;2024-02-23T12:20:17;23.60;99.90
44435;DHT22;30138;20.964;105.830;2024-02-23T12:25:24;23.60;99.90
44435;DHT22;30138;20.964;105.830;2024-02-23T12:30:32;23.60;99.90
44435;DHT22;30138;20.964;105.830;2024-02-23T12:35:41;23.60;99.90
44435;DHT22;30138;20.964;105.830;2024-02-23T12:40:49;23.60;99.90
44435;DHT22;30138;20.964;105.830;2024-02-23T12:45:57;23.60;99.90
44435;DHT22;30138;20.964;105.830;2024-02-23T12:51:07;23.60;99.90
44435;DHT22;30138;20.964;105.830;2024-02-23T12:56:15;23.60;99.90
44435;DHT22;30138;20.964;105.830;2024-02-23T13:01:21;23.60;99.90
44435;DHT22;30138;20.964;105.830;2024-02-23T13:06:30;23.60;99.90
44435;DHT22;30138;20.964;105.830;2024-02-23T13:11:38;23.60;99.90
44435;DHT22;30138;20.964;105.830;2024-02-23T13:16:45;23.60;99.90
44435;DHT22;30138;20.964;105.830;2024-02-23T13:21:54;23.60;99.90
44435;DHT22;30138;20.964;105.830;2024-02-23T13:27:03;23.50;99.90
44435;DHT22;30138;20.964;105.830;2024-02-23T13:32:10;23.50;99.90
44435;DHT22;30138;20.964;105.830;2024-02-23T13:37:20;23.50;99.90
44435;DHT22;30138;20.964;105.830;2024-02-23T13:42:30;23.50;99.90
44435;DHT22;30138;20.964;105.830;2024-02-23T13:47:37;23.50;99.90
44435;DHT22;30138;20.964;105.830;2024-02-23T13:52:45;23.50;99.90
44435;DHT22;30138;20.964;105.830;2024-02-23T13:57:52;23.50;99.90
44435;DHT22;30138;20.964;105.830;2024-02-23T14:02:58;23.40;99.90
44435;DHT22;30138;20.964;105.830;2024-02-23T14:08:08;23.40;99.90
44435;DHT22;30138;20.964;105.830;2024-02-23T14:13:15;23.40;99.90
44435;DHT22;30138;20.964;105.830;2024-02-23T14:18:22;23.40;99.90
44435;DHT22;30138;20.964;105.830;2024-02-23T14:23:32;23.40;99.90
44435;DHT22;30138;20.964;105.830;2024-02-23T14:28:39;23.40;99.90
44435;DHT22;30138;20.964;105.830;2024-02-23T14:33:47;23.40;99.90
44435;DHT22;30138;20.964;105.830;2024-02-23T14:38:55;23.40;99.90
44435;DHT22;30138;20.964;105.830;2024-02-23T14:44:02;23.40;99.90
44435;DHT22;30138;20.964;105.830;2024-02-23T14:49:08;23.40;99.90
44435;DHT22;30138;20.964;105.830;2024-02-23T14:54:16;23.40;99.90
44435;DHT22;30138;20.964;105.830;2024-02-23T14:59:23;23.40;99.90
44435;DHT22;30138;20.964;105.830;2024-02-23T15:04:29;23.40;99.90
44435;DHT22;30138;20.964;105.830;2024-02-23T15:09:38;23.40;99.90
44435;DHT22;30138;20.964;105.830;2024-02-23T15:14:46;23.40;99.90
44435;DHT22;30138;20.964;105.830;2024-02-23T15:19:52;23.30;99.90
44435;DHT22;30138;20.964;105.830;2024-02-23T15:25:01;23.30;99.90
44435;DHT22;30138;20.964;105.830;2024-02-23T15:30:09;23.30;99.90
44435;DHT22;30138;20.964;105.830;2024-02-23T15:35:16;23.30;99.90
44435;DHT22;30138;20.964;105.830;2024-02-23T15:40:24;23.30;99.90
44435;DHT22;30138;20.964;105.830;2024-02-23T15:45:30;23.30;99.90
44435;DHT22;30138;20.964;105.830;2024-02-23T15:50:37;23.30;99.90
44435;DHT22;30138;20.964;105.830;2024-02-23T15:55:45;23.30;99.90
44435;DHT22;30138;20.964;105.830;2024-02-23T16:00:52;23.30;99.90
44435;DHT22;30138;20.964;105.830;2024-02-23T16:05:59;23.30;99.90
44435;DHT22;30138;20.964;105.830;2024-02-23T16:11:09;23.30;99.90
44435;DHT22;30138;20.964;105.830;2024-02-23T16:16:17;23.20;99.90
44435;DHT22;30138;20.964;105.830;2024-02-23T16:21:24;23.20;99.90
44435;DHT22;30138;20.964;105.830;2024-02-23T16:26:33;23.20;99.90
44435;DHT22;30138;20.964;105.830;2024-02-23T16:31:41;23.10;99.90
44435;DHT22;30138;20.964;105.830;2024-02-23T16:36:48;23.10;99.90
44435;DHT22;30138;20.964;105.830;2024-02-23T16:41:57;23.10;99.90
44435;DHT22;30138;20.964;105.830;2024-02-23T16:47:03;23.10;99.90
44435;DHT22;30138;20.964;105.830;2024-02-23T16:52:10;23.10;99.90
44435;DHT22;30138;20.964;105.830;2024-02-23T16:57:18;23.10;99.90
44435;DHT22;30138;20.964;105.830;2024-02-23T17:02:25;23.10;99.90
44435;DHT22;30138;20.964;105.830;2024-02-23T17:07:32;23.00;99.90
44435;DHT22;30138;20.964;105.830;2024-02-23T17:12:41;23.00;99.90
44435;DHT22;30138;20.964;105.830;2024-02-23T17:17:50;23.00;99.90
44435;DHT22;30138;20.964;105.830;2024-02-23T17:22:57;23.00;99.90
44435;DHT22;30138;20.964;105.830;2024-02-23T17:28:08;23.00;99.90
44435;DHT22;30138;20.964;105.830;2024-02-23T17:33:15;23.00;99.90
44435;DHT22;30138;20.964;105.830;2024-02-23T17:38:22;23.00;99.90
44435;DHT22;30138;20.964;105.830;2024-02-23T17:43:32;22.90;99.90
44435;DHT22;30138;20.964;105.830;2024-02-23T17:48:39;23.00;99.90
44435;DHT22;30138;20.964;105.830;2024-02-23T17:53:47;22.90;99.90
44435;DHT22;30138;20.964;105.830;2024-02-23T17:58:55;22.90;99.90
44435;DHT22;30138;20.964;105.830;2024-02-23T18:04:03;22.90;99.90
44435;DHT22;30138;20.964;105.830;2024-02-23T18:09:10;22.90;99.90
44435;DHT22;30138;20.964;105.830;2024-02-23T18:14:18;22.90;99.90
44435;DHT22;30138;20.964;105.830;2024-02-23T18:19:25;22.80;99.90
44435;DHT22;30138;20.964;105.830;2024-02-23T18:24:31;22.80;99.90
44435;DHT22;30138;20.964;105.830;2024-02-23T18:29:40;22.80;99.90
44435;DHT22;30138;20.964;105.830;2024-02-23T18:34:47;22.80;99.90
44435;DHT22;30138;20.964;105.830;2024-02-23T18:39:54;22.80;99.90
44435;DHT22;30138;20.964;105.830;2024-02-23T18:45:03;22.80;99.90
44435;DHT22;30138;20.964;105.830;2024-02-23T18:50:11;22.70;99.90
44435;DHT22;30138;20.964;105.830;2024-02-23T18:55:18;22.70;99.90
44435;DHT22;30138;20.964;105.830;2024-02-23T19:00:26;22.70;99.90
44435;DHT22;30138;20.964;105.830;2024-02-23T19:05:34;22.70;99.90
44435;DHT22;30138;20.964;105.830;2024-02-23T19:10:40;22.70;99.90
44435;DHT22;30138;20.964;105.830;2024-02-23T19:15:50;22.70;99.90
44435;DHT22;30138;20.964;105.830;2024-02-23T19:20:57;22.60;99.90
44435;DHT22;30138;20.964;105.830;2024-02-23T19:26:03;22.60;99.90
44435;DHT22;30138;20.964;105.830;2024-02-23T19:31:13;22.60;99.90
44435;DHT22;30138;20.964;105.830;2024-02-23T19:36:19;22.60;99.90
44435;DHT22;30138;20.964;105.830;2024-02-23T19:41:26;22.60;99.90
44435;DHT22;30138;20.964;105.830;2024-02-23T19:46:36;22.60;99.90
44435;DHT22;30138;20.964;105.830;2024-02-23T19:51:42;22.60;99.90
44435;DHT22;30138;20.964;105.830;2024-02-23T19:56:49;22.50;99.90
44435;DHT22;30138;20.964;105.830;2024-02-23T20:01:59;22.50;99.90
44435;DHT22;30138;20.964;105.830;2024-02-23T20:07:06;22.50;99.90
44435;DHT22;30138;20.964;105.830;2024-02-23T20:12:12;22.50;99.90
44435;DHT22;30138;20.964;105.830;2024-02-23T20:17:22;22.50;99.90
44435;DHT22;30138;20.964;105.830;2024-02-23T20:22:32;22.40;99.90
44435;DHT22;30138;20.964;105.830;2024-02-23T20:27:39;22.40;99.90
44435;DHT22;30138;20.964;105.830;2024-02-23T20:32:47;22.40;99.90
44435;DHT22;30138;20.964;105.830;2024-02-23T20:37:55;22.40;99.90
44435;DHT22;30138;20.964;105.830;2024-02-23T20:43:02;22.40;99.90
44435;DHT22;30138;20.964;105.830;2024-02-23T20:48:11;22.40;99.90
44435;DHT22;30138;20.964;105.830;2024-02-23T20:53:19;22.30;99.90
44435;DHT22;30138;20.964;105.830;2024-02-23T20:58:25;22.30;99.90
44435;DHT22;30138;20.964;105.830;2024-02-23T21:03:33;22.30;99.90
44435;DHT22;30138;20.964;105.830;2024-02-23T21:08:42;22.30;99.90
44435;DHT22;30138;20.964;105.830;2024-02-23T21:13:49;22.30;99.90
44435;DHT22;30138;20.964;105.830;2024-02-23T21:18:57;22.30;99.90
44435;DHT22;30138;20.964;105.830;2024-02-23T21:24:04;22.20;99.90
44435;DHT22;30138;20.964;105.830;2024-02-23T21:29:10;22.20;99.90
44435;DHT22;30138;20.964;105.830;2024-02-23T21:34:21;22.20;99.90
44435;DHT22;30138;20.964;105.830;2024-02-23T21:39:28;22.20;99.90
44435;DHT22;30138;20.964;105.830;2024-02-23T21:44:35;22.20;99.90
44435;DHT22;30138;20.964;105.830;2024-02-23T21:49:44;22.20;99.90
44435;DHT22;30138;20.964;105.830;2024-02-23T21:54:51;22.10;99.90
44435;DHT22;30138;20.964;105.830;2024-02-23T21:59:57;22.10;99.90
44435;DHT22;30138;20.964;105.830;2024-02-23T22:05:09;22.10;99.90
44435;DHT22;30138;20.964;105.830;2024-02-23T22:10:15;22.10;99.90
44435;DHT22;30138;20.964;105.830;2024-02-23T22:15:23;22.10;99.90
44435;DHT22;30138;20.964;105.830;2024-02-23T22:20:31;22.00;99.90
44435;DHT22;30138;20.964;105.830;2024-02-23T22:25:37;22.10;99.90
44435;DHT22;30138;20.964;105.830;2024-02-23T22:30:44;22.00;99.90
44435;DHT22;30138;20.964;105.830;2024-02-23T22:35:55;22.00;99.90
44435;DHT22;30138;20.964;105.830;2024-02-23T22:41:02;22.00;99.90
44435;DHT22;30138;20.964;105.830;2024-02-23T22:46:08;22.00;99.90
44435;DHT22;30138;20.964;105.830;2024-02-23T22:51:16;22.00;99.90
44435;DHT22;30138;20.964;105.830;2024-02-23T22:56:23;21.90;99.90
44435;DHT22;30138;20.964;105.830;2024-02-23T23:01:29;21.90;99.90
44435;DHT22;30138;20.964;105.830;2024-02-23T23:06:40;21.90;99.90
44435;DHT22;30138;20.964;105.830;2024-02-23T23:11:48;21.90;99.90
44435;DHT22;30138;20.964;105.830;2024-02-23T23:16:56;21.80;99.90
44435;DHT22;30138;20.964;105.830;2024-02-23T23:22:05;21.80;99.90
44435;DHT22;30138;20.964;105.830;2024-02-23T23:27:12;21.80;99.90
44435;DHT22;30138;20.964;105.830;2024-02-23T23:32:18;21.80;99.90
44435;DHT22;30138;20.964;105.830;2024-02-23T23:37:26;21.80;99.90
44435;DHT22;30138;20.964;105.830;2024-02-23T23:42:34;21.80;99.90
44435;DHT22;30138;20.964;105.830;2024-02-23T23:47:41;21.70;99.90
44435;DHT22;30138;20.964;105.830;2024-02-23T23:52:50;21.70;99.90
44435;DHT22;30138;20.964;105.830;2024-02-23T23:57:58;21.70;99.90
